createdAt,value
2023-03-22T00:01:45.504Z,18.42
2023-03-22T00:07:49.654Z,18.13
2023-03-22T00:13:51.852Z,17.66
2023-03-22T00:19:54.031Z,17.75
2023-03-22T00:25:56.494Z,17.42
2023-03-22T00:31:57.964Z,17.47
2023-03-22T00:38:13.404Z,17.32
2023-03-22T00:44:14.951Z,17.40
2023-03-22T00:50:19.637Z,17.21
2023-03-22T00:56:24.819Z,17.12
2023-03-22T01:02:34.347Z,17.03
2023-03-22T01:08:38.239Z,16.81
2023-03-22T01:14:40.161Z,16.64
2023-03-22T01:20:42.053Z,16.63
2023-03-22T01:26:46.180Z,16.62
2023-03-22T01:32:47.836Z,16.49
2023-03-22T01:38:49.888Z,16.54
2023-03-22T01:45:26.789Z,16.44
2023-03-22T01:51:28.474Z,16.09
2023-03-22T01:57:53.924Z,16.00
2023-03-22T02:04:33.298Z,16.10
2023-03-22T02:10:36.374Z,16.29
2023-03-22T02:16:50.724Z,16.25
2023-03-22T02:23:05.215Z,15.93
2023-03-22T02:29:34.871Z,15.67
2023-03-22T02:35:53.467Z,15.21
2023-03-22T02:42:14.122Z,15.18
2023-03-22T02:48:18.448Z,14.94
2023-03-22T02:54:45.302Z,15.01
2023-03-22T03:00:50.341Z,14.90
2023-03-22T03:06:58.330Z,15.04
2023-03-22T03:13:00.240Z,14.69
2023-03-22T03:19:15.777Z,14.63
2023-03-22T03:26:04.287Z,14.46
2023-03-22T03:32:19.340Z,14.13
2023-03-22T03:38:25.715Z,14.20
2023-03-22T03:44:32.533Z,14.27
2023-03-22T03:50:43.231Z,14.55
2023-03-22T03:56:47.075Z,14.63
2023-03-22T04:02:48.936Z,14.63
2023-03-22T04:09:12.946Z,14.87
2023-03-22T04:15:17.598Z,15.18
2023-03-22T04:21:22.234Z,14.94
2023-03-22T04:27:35.195Z,15.08
2023-03-22T04:33:46.202Z,15.21
2023-03-22T04:39:59.856Z,15.19
2023-03-22T04:46:12.122Z,15.39
2023-03-22T04:52:18.444Z,15.41
2023-03-22T04:58:27.115Z,15.55
2023-03-22T05:04:28.685Z,15.48
2023-03-22T05:10:39.727Z,15.19
2023-03-22T05:16:41.565Z,15.46
2023-03-22T05:22:44.809Z,15.58
2023-03-22T05:28:46.844Z,15.70
2023-03-22T05:34:55.489Z,15.52
2023-03-22T05:41:02.951Z,15.83
2023-03-22T05:47:06.217Z,15.98
2023-03-22T05:53:11.188Z,16.23
2023-03-22T05:59:34.146Z,16.58
2023-03-22T06:05:36.780Z,16.65
2023-03-22T06:11:38.541Z,16.96
2023-03-22T06:17:41.693Z,17.20
2023-03-22T06:23:44.535Z,17.52
2023-03-22T06:29:50.073Z,17.52
2023-03-22T06:35:53.506Z,17.89
2023-03-22T06:42:02.761Z,17.64
2023-03-22T06:48:04.885Z,17.65
2023-03-22T06:54:12.661Z,17.81
2023-03-22T07:00:15.292Z,17.37
2023-03-22T07:06:16.875Z,17.52
2023-03-22T07:12:21.808Z,18.08
2023-03-22T07:18:24.806Z,18.14
2023-03-22T07:24:26.356Z,18.04
2023-03-22T07:30:28.366Z,18.49
2023-03-22T07:36:31.028Z,18.41
2023-03-22T07:42:33.939Z,18.59
2023-03-22T07:48:57.902Z,18.66
2023-03-22T07:55:18.168Z,19.32
2023-03-22T08:01:20.864Z,19.54
2023-03-22T08:07:36.923Z,20.17
2023-03-22T08:13:38.859Z,20.76
2023-03-22T08:19:43.125Z,21.00
2023-03-22T08:25:46.315Z,21.58
2023-03-22T08:31:48.303Z,22.03
2023-03-22T08:37:53.996Z,22.15
2023-03-22T08:43:56.858Z,22.12
2023-03-22T08:49:58.385Z,22.37
2023-03-22T08:56:09.383Z,22.74
2023-03-22T09:02:26.289Z,22.77
2023-03-22T09:08:29.270Z,23.32
2023-03-22T09:14:38.220Z,22.55
2023-03-22T09:20:40.673Z,22.51
2023-03-22T09:26:43.057Z,22.21
2023-03-22T09:32:44.731Z,21.71
2023-03-22T09:38:49.330Z,22.58
2023-03-22T09:44:52.030Z,23.10
2023-03-22T09:50:57.223Z,23.31
2023-03-22T09:57:02.353Z,23.62
2023-03-22T10:03:28.523Z,23.94
2023-03-22T10:09:48.667Z,24.26
2023-03-22T10:15:55.158Z,24.76
2023-03-22T10:21:57.493Z,24.95
2023-03-22T10:27:59.054Z,24.70
2023-03-22T10:34:05.537Z,25.01
2023-03-22T10:40:35.045Z,25.20
2023-03-22T10:46:38.869Z,25.07
2023-03-22T10:52:47.268Z,25.22
2023-03-22T10:58:49.986Z,25.93
2023-03-22T11:04:53.877Z,26.14
2023-03-22T11:10:59.645Z,26.34
2023-03-22T11:17:14.701Z,26.45
2023-03-22T11:23:17.327Z,25.98
2023-03-22T11:29:18.855Z,26.98
2023-03-22T11:41:48.430Z,27.43
2023-03-22T11:47:50.603Z,27.52
2023-03-22T11:53:56.509Z,27.56
2023-03-22T12:00:19.309Z,27.67
2023-03-22T12:06:27.481Z,27.86
2023-03-22T12:12:36.427Z,27.89
2023-03-22T12:18:44.311Z,27.44
2023-03-22T12:24:46.007Z,26.85
2023-03-22T12:30:50.850Z,26.63
2023-03-22T12:36:55.766Z,26.47
2023-03-22T12:43:20.765Z,26.41
2023-03-22T12:49:28.607Z,25.90
2023-03-22T12:55:33.199Z,25.57
2023-03-22T13:02:01.906Z,25.68
2023-03-22T13:08:04.961Z,26.00
2023-03-22T13:14:06.723Z,26.16
2023-03-22T13:20:11.548Z,25.77
2023-03-22T13:26:14.660Z,25.82
2023-03-22T13:32:53.335Z,25.57
2023-03-22T13:39:04.598Z,25.71
2023-03-22T13:45:32.693Z,25.95
2023-03-22T13:51:34.808Z,25.37
2023-03-22T13:57:58.274Z,25.68
2023-03-22T14:04:03.360Z,25.82
2023-03-22T14:10:44.624Z,25.77
2023-03-22T14:16:48.909Z,25.77
